Terminal Aerodrome Forecast
Issued by NWS

Current Version | Previous Version | Text Only | Print | Product List | Glossary On
Versions: 1 2 3 4 5 6 7 8 9 10 11 12 13 14 15 16 17
000
FTUS46 KMTR 222300
TAFSNS
TAF
KSNS 222338Z 2300/2324 28015G20KT P6SM BKN017
     FM230200 28011KT P6SM OVC009
     FM230700 VRB03KT P6SM OVC007
     FM231800 29010KT P6SM SKC
     FM232000 29014KT P6SM SKC=

USA.gov is the U.S. government's official web portal to all federal, state and local government web resources and services.